Time;durP1;ratioP1;P1;durP2;ratioP2;P2;SDS_P1;SDS_P2;PMS_P1;PMS_P2;Temp;Humidity;BMP_temperature;BMP_pressure;BME280_temperature;BME280_humidity;BME280_pressure;Samples;Min_cycle;Max_cycle;Signal;HPM_P1;HPM_P2
2023/03/19 00:01:15;;;;;;;9.32;4.07;;;;;;;13.97;76.01;101098.47;10345037;28;99119;-73
2023/03/19 00:06:19;;;;;;;8.50;4.28;;;;;;;13.98;75.94;101103.69;10340899;28;98597;-73
2023/03/19 00:11:23;;;;;;;7.50;4.07;;;;;;;13.87;76.01;101095.31;10324430;28;98160;-73
2023/03/19 00:16:27;;;;;;;8.50;5.00;;;;;;;13.87;76.05;101102.38;10332044;28;96757;-73
2023/03/19 00:21:31;;;;;;;7.32;4.00;;;;;;;13.95;75.88;101106.44;10331706;28;96723;-73
2023/03/19 00:26:36;;;;;;;6.55;4.07;;;;;;;13.93;76.04;101102.13;10332288;28;96758;-73
2023/03/19 00:31:40;;;;;;;9.10;5.30;;;;;;;13.88;76.08;101104.13;10316620;28;96780;-72
2023/03/19 00:36:44;;;;;;;8.70;4.53;;;;;;;13.69;76.30;101094.25;10332741;28;96976;-73
2023/03/19 00:41:49;;;;;;;8.80;4.05;;;;;;;13.49;76.44;101091.50;10331167;28;96848;-73
2023/03/19 00:46:52;;;;;;;8.68;3.97;;;;;;;13.39;76.86;101092.78;10335644;28;96781;-73
2023/03/19 00:51:55;;;;;;;7.47;3.92;;;;;;;13.25;76.62;101083.63;10338571;28;96686;-73
2023/03/19 00:57:00;;;;;;;7.13;4.30;;;;;;;13.20;76.90;101075.91;10338025;28;97946;-73
2023/03/19 01:02:04;;;;;;;8.93;4.05;;;;;;;13.15;76.89;101076.97;10334706;28;97385;-73
2023/03/19 01:07:08;;;;;;;6.87;3.47;;;;;;;12.88;77.21;101081.47;10323500;28;96733;-73
2023/03/19 01:12:13;;;;;;;5.57;3.22;;;;;;;12.71;77.39;101078.56;10337268;28;99665;-73
2023/03/19 01:17:16;;;;;;;6.55;3.08;;;;;;;12.61;77.07;101078.91;10334866;28;96701;-73
2023/03/19 01:22:19;;;;;;;4.75;2.60;;;;;;;12.53;77.55;101076.56;10335870;28;96891;-73
2023/03/19 01:27:24;;;;;;;3.88;2.42;;;;;;;12.34;77.58;101073.66;10337869;28;96904;-72
2023/03/19 01:32:27;;;;;;;5.45;2.45;;;;;;;12.33;76.65;101077.22;10336898;28;96787;-72
2023/03/19 01:37:31;;;;;;;4.07;2.40;;;;;;;12.34;76.46;101072.81;10333944;28;97061;-73
2023/03/19 01:42:51;;;;;;;3.90;2.30;;;;;;;12.13;76.87;101062.97;10336856;28;96950;-73
2023/03/19 01:47:54;;;;;;;6.07;2.80;;;;;;;12.12;77.05;101072.66;10335174;28;96735;-72
2023/03/19 01:52:58;;;;;;;4.15;2.47;;;;;;;12.14;76.99;101075.25;10334109;28;96684;-72
2023/03/19 01:58:03;;;;;;;6.57;2.67;;;;;;;12.13;77.16;101073.53;10294979;28;96616;-72
2023/03/19 02:03:06;;;;;;;;;;;;;;;12.00;77.94;101077.47;10336864;28;97032;-72
2023/03/19 02:08:12;;;;;;;8.93;3.15;;;;;;;12.00;77.23;101073.06;10335844;28;96965;-72
2023/03/19 02:13:17;;;;;;;6.60;2.85;;;;;;;11.95;77.28;101084.66;10344588;28;96735;-72
2023/03/19 02:18:21;;;;;;;5.07;2.80;;;;;;;11.93;77.20;101071.53;10335805;28;96823;-72
2023/03/19 02:23:34;;;;;;;5.72;3.03;;;;;;;11.82;77.02;101065.72;10335299;28;96758;-73
2023/03/19 02:28:42;;;;;;;4.70;3.20;;;;;;;11.83;77.68;101071.88;10334381;28;96887;-73
2023/03/19 02:34:00;;;;;;;4.20;2.60;;;;;;;11.62;77.88;101054.94;10335944;28;96630;-73
2023/03/19 02:39:06;;;;;;;7.00;4.78;;;;;;;11.66;77.43;101050.44;10334871;28;97667;-73
2023/03/19 02:44:12;;;;;;;5.50;3.47;;;;;;;11.57;77.64;101040.19;10331443;28;96722;-73
2023/03/19 02:49:15;;;;;;;5.07;2.90;;;;;;;11.56;77.72;101028.78;10328335;28;97294;-72
2023/03/19 02:54:18;;;;;;;5.05;3.05;;;;;;;11.47;77.30;101020.28;10334880;28;96700;-72
2023/03/19 02:59:23;;;;;;;8.20;2.70;;;;;;;11.48;77.14;101014.09;10334398;28;96879;-73
2023/03/19 03:04:26;;;;;;;5.30;3.27;;;;;;;11.35;78.19;101025.03;10304147;28;99208;-73
2023/03/19 03:09:29;;;;;;;116.78;11.95;;;;;;;11.45;78.00;101020.34;10293896;28;96542;-73
2023/03/19 03:14:35;;;;;;;14.18;5.93;;;;;;;11.21;78.17;101014.06;10326330;28;96975;-73
2023/03/19 03:19:38;;;;;;;5.28;2.75;;;;;;;11.18;78.37;101018.56;10334672;28;98398;-73
2023/03/19 03:24:41;;;;;;;4.38;3.33;;;;;;;11.07;78.24;101021.47;10333318;28;96720;-73
2023/03/19 03:29:46;;;;;;;16.17;5.22;;;;;;;11.25;78.28;101023.59;10341849;28;96936;-73
2023/03/19 03:34:49;;;;;;;17.23;5.38;;;;;;;11.33;78.40;101005.78;10332980;28;99214;-73
2023/03/19 03:39:52;;;;;;;23.13;5.15;;;;;;;11.45;78.49;101016.84;10333325;28;96939;-73
2023/03/19 03:44:57;;;;;;;37.50;6.75;;;;;;;11.42;78.86;101011.66;10332716;28;96738;-72
2023/03/19 03:50:00;;;;;;;14.55;4.90;;;;;;;11.54;78.50;101013.94;10332305;28;97568;-72
2023/03/19 03:55:04;;;;;;;85.82;7.80;;;;;;;11.51;79.25;101024.56;10319234;28;96782;-72
2023/03/19 04:00:11;;;;;;;18.52;4.32;;;;;;;11.56;77.89;101027.94;10332209;28;96893;-72
2023/03/19 04:05:14;;;;;;;37.85;6.18;;;;;;;11.51;78.09;101043.03;10331214;28;97105;-73
2023/03/19 04:10:18;;;;;;;15.45;5.40;;;;;;;11.59;78.00;101052.41;10326244;28;96917;-73
2023/03/19 04:15:22;;;;;;;199.38;13.52;;;;;;;11.42;78.39;101051.19;10331785;28;96700;-73
2023/03/19 04:20:26;;;;;;;62.30;7.07;;;;;;;11.52;79.02;101063.19;10331445;28;97297;-72
2023/03/19 04:25:29;;;;;;;117.47;8.35;;;;;;;11.55;78.41;101071.84;10331797;28;96764;-73
2023/03/19 04:30:34;;;;;;;29.00;5.00;;;;;;;11.28;78.75;101068.31;10330582;28;97278;-73
2023/03/19 04:35:37;;;;;;;41.30;5.75;;;;;;;11.13;78.43;101066.09;10330671;28;97171;-73
2023/03/19 04:40:41;;;;;;;69.72;7.22;;;;;;;10.97;79.10;101063.91;10343752;28;99242;-73
2023/03/19 04:45:46;;;;;;;54.13;6.03;;;;;;;10.75;80.14;101068.91;10342489;28;96744;-73
2023/03/19 04:50:52;;;;;;;131.30;11.70;;;;;;;10.58;80.27;101076.41;10331309;28;96768;-73
2023/03/19 04:55:55;;;;;;;203.85;17.55;;;;;;;10.65;80.99;101079.72;10331142;28;99206;-73
2023/03/19 05:01:00;;;;;;;179.70;16.30;;;;;;;10.76;81.10;101075.91;10330140;28;96881;-73
2023/03/19 05:06:04;;;;;;;100.18;11.15;;;;;;;10.84;80.12;101087.09;10331596;28;96717;-73
2023/03/19 05:11:07;;;;;;;20.27;6.75;;;;;;;10.98;80.82;101082.31;10329729;28;96850;-74
2023/03/19 05:16:12;;;;;;;48.80;7.97;;;;;;;11.05;80.31;101091.75;10328774;28;96995;-73
2023/03/19 05:21:15;;;;;;;97.00;9.65;;;;;;;11.16;79.71;101097.59;10317794;28;96794;-73
2023/03/19 05:26:19;;;;;;;187.82;15.30;;;;;;;10.94;80.72;101101.72;10329882;28;96764;-73
2023/03/19 05:31:23;;;;;;;35.70;7.30;;;;;;;10.95;80.74;101110.50;10331665;28;96906;-73
2023/03/19 05:36:27;;;;;;;135.75;12.07;;;;;;;11.13;80.90;101110.00;10316681;28;96678;-73
2023/03/19 05:41:31;;;;;;;21.15;6.10;;;;;;;11.26;79.76;101108.75;10318885;28;96715;-73
2023/03/19 05:46:35;;;;;;;24.88;6.80;;;;;;;11.00;79.85;101120.00;10340855;28;97129;-73
2023/03/19 05:51:38;;;;;;;30.45;7.97;;;;;;;10.84;80.44;101120.44;10330017;28;96712;-73
2023/03/19 05:56:41;;;;;;;305.40;26.63;;;;;;;10.55;81.79;101118.59;10318973;28;97088;-73
2023/03/19 06:01:46;;;;;;;115.07;13.82;;;;;;;10.50;81.03;101131.00;10335917;28;96775;-73
2023/03/19 06:06:49;;;;;;;17.85;7.30;;;;;;;10.61;80.83;101133.38;10335685;28;96592;-73
2023/03/19 06:11:52;;;;;;;25.67;7.63;;;;;;;10.64;80.56;101141.19;10325943;28;97390;-73
2023/03/19 06:16:57;;;;;;;16.67;7.07;;;;;;;10.64;80.43;101139.41;10336173;28;97208;-74
2023/03/19 06:22:00;;;;;;;18.35;7.30;;;;;;;10.40;80.72;101129.50;10335183;28;96648;-72
2023/03/19 06:27:04;;;;;;;10.13;6.45;;;;;;;10.53;80.07;101132.69;10334366;28;97405;-72
2023/03/19 06:32:09;;;;;;;9.77;6.28;;;;;;;10.60;79.80;101134.25;10335001;28;96932;-72
2023/03/19 06:37:12;;;;;;;7.25;5.28;;;;;;;10.47;81.35;101143.38;10335498;28;96984;-72
2023/03/19 06:42:16;;;;;;;6.72;4.40;;;;;;;10.47;80.83;101146.00;10333609;28;97178;-73
2023/03/19 06:47:20;;;;;;;9.63;5.30;;;;;;;10.42;80.36;101146.09;10331689;28;97080;-72
2023/03/19 06:52:23;;;;;;;4.90;4.10;;;;;;;10.55;80.45;101147.53;10332134;28;97296;-72
2023/03/19 06:57:27;;;;;;;8.23;4.47;;;;;;;10.64;79.86;101146.44;10331077;28;96795;-73
2023/03/19 07:02:31;;;;;;;7.45;3.75;;;;;;;10.56;80.32;101146.63;10329334;28;96761;-72
2023/03/19 07:07:34;;;;;;;6.70;4.27;;;;;;;10.35;80.10;101152.41;10333231;28;96960;-72
2023/03/19 07:12:37;;;;;;;7.20;4.47;;;;;;;10.47;79.86;101157.38;10328374;28;96818;-72
2023/03/19 07:17:44;;;;;;;6.72;4.00;;;;;;;10.48;80.12;101158.25;10329639;28;98569;-72
2023/03/19 07:22:47;;;;;;;4.95;3.00;;;;;;;10.51;79.99;101161.66;10332617;28;97153;-71
2023/03/19 07:27:50;;;;;;;7.85;4.13;;;;;;;10.41;80.38;101175.97;10330437;28;96752;-71
2023/03/19 07:32:57;;;;;;;6.07;4.07;;;;;;;10.53;80.03;101178.28;10331710;28;96777;-72
2023/03/19 07:38:01;;;;;;;7.13;3.33;;;;;;;10.56;79.82;101172.94;10328685;28;97140;-72
2023/03/19 07:43:04;;;;;;;4.57;2.80;;;;;;;10.68;79.46;101177.91;10345094;28;97395;-72
2023/03/19 07:48:09;;;;;;;4.90;2.67;;;;;;;10.76;78.75;101193.50;10339643;28;96731;-72
2023/03/19 07:53:13;;;;;;;3.72;2.50;;;;;;;10.92;79.14;101189.59;10359441;28;96771;-72
2023/03/19 07:58:17;;;;;;;4.82;3.05;;;;;;;11.02;78.30;101194.56;10359913;28;99488;-72
2023/03/19 08:03:21;;;;;;;5.60;2.88;;;;;;;11.03;78.50;101190.16;10343004;28;98760;-71
2023/03/19 08:08:24;;;;;;;4.85;2.63;;;;;;;11.05;79.04;101194.47;10348344;28;96849;-72
2023/03/19 08:13:28;;;;;;;4.70;2.55;;;;;;;11.16;78.27;101205.59;10351287;28;96775;-72
2023/03/19 08:18:32;;;;;;;5.47;2.78;;;;;;;11.19;78.10;101202.91;10325526;28;99332;-72
2023/03/19 08:23:35;;;;;;;4.63;2.20;;;;;;;11.30;78.56;101192.94;10322730;28;96860;-72
2023/03/19 08:28:38;;;;;;;4.70;2.83;;;;;;;11.44;78.15;101199.59;10330255;28;96777;-72
2023/03/19 08:33:43;;;;;;;4.32;2.78;;;;;;;11.48;77.52;101199.47;10331200;28;96778;-72
2023/03/19 08:38:46;;;;;;;4.55;3.03;;;;;;;11.49;78.08;101203.84;10328599;28;96703;-72
2023/03/19 08:43:50;;;;;;;6.13;3.17;;;;;;;11.60;77.14;101216.72;10345414;28;98464;-72
2023/03/19 08:48:55;;;;;;;7.57;4.13;;;;;;;11.51;77.97;101220.44;10338792;28;96791;-73
2023/03/19 08:53:58;;;;;;;10.00;5.25;;;;;;;11.43;77.99;101214.53;10328792;28;99556;-72
2023/03/19 08:59:01;;;;;;;5.72;4.53;;;;;;;11.33;77.88;101219.22;10326968;28;97861;-72
2023/03/19 09:04:06;;;;;;;7.28;4.13;;;;;;;11.53;77.91;101233.63;10346126;28;98642;-72
2023/03/19 09:09:09;;;;;;;7.20;4.40;;;;;;;11.78;77.39;101229.34;10337779;28;97760;-72
2023/03/19 09:14:12;;;;;;;4.25;3.63;;;;;;;11.94;76.91;101223.59;10338646;28;96739;-72
2023/03/19 09:19:17;;;;;;;4.38;3.05;;;;;;;12.94;74.58;101231.84;10342978;28;96787;-72
2023/03/19 09:24:20;;;;;;;5.38;2.80;;;;;;;14.58;70.93;101225.69;10345551;28;98789;-72
2023/03/19 09:29:23;;;;;;;5.57;3.00;;;;;;;15.89;65.66;101206.66;10339871;28;97519;-72
2023/03/19 09:34:28;;;;;;;4.60;2.83;;;;;;;17.54;61.45;101201.97;10316048;28;97404;-73
2023/03/19 09:39:32;;;;;;;4.03;2.60;;;;;;;18.07;59.09;101193.75;10333847;28;98470;-75
2023/03/19 09:44:38;;;;;;;3.67;2.60;;;;;;;18.94;56.37;101185.13;10337426;28;97102;-74
2023/03/19 09:49:44;;;;;;;3.03;2.45;;;;;;;18.51;55.71;101193.91;10336670;28;96699;-73
2023/03/19 09:54:51;;;;;;;3.67;2.53;;;;;;;19.04;54.89;101175.66;10336268;28;98482;-74
2023/03/19 09:59:54;;;;;;;4.20;2.55;;;;;;;19.80;53.04;101182.50;10335782;28;97767;-73
2023/03/19 10:05:09;;;;;;;3.60;2.55;;;;;;;19.33;51.92;101168.53;10337680;28;96687;-74
2023/03/19 10:10:26;;;;;;;5.18;2.50;;;;;;;19.45;50.72;101171.34;10336072;28;96649;-72
2023/03/19 10:15:31;;;;;;;3.80;2.10;;;;;;;19.95;50.95;101157.50;10334371;28;96769;-72
2023/03/19 10:20:50;;;;;;;3.50;2.10;;;;;;;20.02;49.67;101151.66;10335222;28;97056;-72
2023/03/19 10:25:56;;;;;;;2.33;1.80;;;;;;;19.68;49.72;101145.91;10310823;28;96602;-72
2023/03/19 10:31:12;;;;;;;4.70;2.50;;;;;;;19.75;49.99;101132.03;10294459;28;96789;-72
2023/03/19 10:36:20;;;;;;;2.67;2.03;;;;;;;21.18;46.99;101133.16;10326385;28;97786;-72
2023/03/19 10:41:38;;;;;;;4.55;2.10;;;;;;;21.31;46.10;101138.53;10331724;28;97055;-72
2023/03/19 10:46:41;;;;;;;2.47;1.73;;;;;;;20.81;46.84;101136.59;10350687;28;98968;-72
2023/03/19 10:51:46;;;;;;;2.23;1.50;;;;;;;21.59;44.40;101129.41;10336974;28;98510;-72
2023/03/19 10:56:51;;;;;;;2.35;1.60;;;;;;;22.44;43.20;101120.34;10334830;28;96858;-74
2023/03/19 11:01:59;;;;;;;2.20;1.55;;;;;;;22.57;41.42;101101.53;10339057;28;97448;-72
2023/03/19 11:07:10;;;;;;;1.52;1.30;;;;;;;23.52;39.67;101110.16;10340468;28;99592;-72
2023/03/19 11:12:19;;;;;;;2.47;1.65;;;;;;;22.23;39.76;101095.13;10341380;28;97240;-73
2023/03/19 11:17:25;;;;;;;2.85;1.30;;;;;;;22.17;40.38;101100.09;10329516;28;96741;-72
2023/03/19 11:22:32;;;;;;;2.00;1.20;;;;;;;21.48;41.18;101089.97;10332310;28;96800;-74
2023/03/19 11:27:36;;;;;;;2.05;1.10;;;;;;;20.39;42.80;101081.50;10328025;28;96747;-72
2023/03/19 11:33:08;;;;;;;1.40;1.00;;;;;;;20.17;43.81;101073.16;10323952;28;96807;-72
2023/03/19 11:38:18;;;;;;;2.83;1.23;;;;;;;20.58;42.84;101075.78;10343239;28;96775;-72
2023/03/19 11:43:44;;;;;;;3.58;1.48;;;;;;;20.82;41.08;101062.53;10331431;28;99284;-72
2023/03/19 11:49:10;;;;;;;3.25;1.25;;;;;;;20.88;41.12;101056.78;10349792;28;96812;-72
2023/03/19 11:54:23;;;;;;;3.90;1.60;;;;;;;21.00;41.64;101059.44;10333222;28;97359;-72
2023/03/19 11:59:45;;;;;;;2.33;1.40;;;;;;;21.38;40.31;101065.66;10343090;28;97553;-72
2023/03/19 12:05:06;;;;;;;1.75;1.30;;;;;;;20.67;41.50;101068.97;10313536;28;96810;-72
2023/03/19 12:10:28;;;;;;;1.60;1.08;;;;;;;21.38;40.53;101062.97;10312961;28;98576;-72
2023/03/19 12:15:38;;;;;;;1.92;1.30;;;;;;;22.27;39.95;101059.09;10329043;28;96786;-72
2023/03/19 12:20:51;;;;;;;1.48;1.10;;;;;;;22.04;39.49;101064.47;10327451;28;97989;-72
2023/03/19 12:26:04;;;;;;;1.60;1.20;;;;;;;22.96;38.55;101071.63;10334157;28;98402;-73
2023/03/19 12:31:44;;;;;;;2.33;1.40;;;;;;;23.29;37.62;101070.81;10355350;28;98577;-72
2023/03/19 12:36:52;;;;;;;1.75;1.20;;;;;;;23.17;38.49;101058.38;10310665;28;97799;-72
2023/03/19 12:41:59;;;;;;;2.17;1.17;;;;;;;23.10;39.07;101038.34;10351927;28;98536;-73
2023/03/19 12:47:06;;;;;;;2.00;1.20;;;;;;;22.79;39.92;101028.28;10351043;28;96775;-73
2023/03/19 12:52:18;;;;;;;2.03;1.30;;;;;;;22.38;39.86;101012.69;10338495;28;96911;-73
2023/03/19 12:57:31;;;;;;;2.83;1.27;;;;;;;22.04;40.44;101009.00;10343542;28;98624;-73
2023/03/19 13:02:41;;;;;;;1.88;1.27;;;;;;;22.41;39.79;100991.84;10341893;28;98465;-73
2023/03/19 13:07:52;;;;;;;2.80;1.20;;;;;;;21.89;40.39;100986.00;10355268;28;98896;-74
2023/03/19 13:12:58;;;;;;;2.75;1.30;;;;;;;22.56;41.25;100971.00;10348983;28;97551;-73
2023/03/19 13:18:12;;;;;;;2.33;1.20;;;;;;;22.42;40.53;100966.72;10325939;28;96866;-73
2023/03/19 13:23:22;;;;;;;1.33;1.10;;;;;;;21.96;40.84;100959.59;10338573;28;99196;-74
2023/03/19 13:28:31;;;;;;;2.15;1.55;;;;;;;21.77;41.75;100944.03;10367791;28;96943;-73
2023/03/19 13:33:36;;;;;;;2.72;1.60;;;;;;;21.29;42.52;100937.78;10351631;28;98599;-73
2023/03/19 13:38:41;;;;;;;2.83;1.40;;;;;;;21.69;41.90;100926.84;10355551;28;97188;-73
2023/03/19 13:43:54;;;;;;;1.90;1.42;;;;;;;22.18;41.04;100919.47;10355290;28;96879;-72
2023/03/19 13:49:09;;;;;;;2.05;1.50;;;;;;;22.32;42.04;100925.50;10327785;28;99322;-73
2023/03/19 13:54:17;;;;;;;;;;;;;;;22.60;40.33;100932.25;10329867;28;96874;-73
2023/03/19 13:59:26;;;;;;;1.92;1.33;;;;;;;23.40;39.39;100936.53;10339961;28;98287;-74
2023/03/19 14:04:31;;;;;;;2.13;1.20;;;;;;;24.19;37.32;100926.22;10334194;28;97195;-74
2023/03/19 14:09:38;;;;;;;1.88;1.38;;;;;;;24.69;37.39;100911.09;10334679;28;98086;-75
2023/03/19 14:14:47;;;;;;;1.65;1.30;;;;;;;23.93;37.55;100903.38;10343058;28;99684;-74
2023/03/19 14:19:51;;;;;;;1.65;1.25;;;;;;;24.42;37.06;100886.59;10340377;28;96808;-79
2023/03/19 14:24:55;;;;;;;1.70;1.20;;;;;;;24.19;36.77;100879.63;10345079;28;96665;-83
2023/03/19 14:30:08;;;;;;;1.98;1.23;;;;;;;24.31;36.53;100878.59;10341905;28;97028;-77
2023/03/19 14:35:19;;;;;;;1.70;1.15;;;;;;;23.55;37.85;100889.59;10335708;28;96898;-76
2023/03/19 14:40:23;;;;;;;2.65;1.20;;;;;;;24.60;36.96;100893.09;10338638;28;99107;-76
2023/03/19 14:45:43;;;;;;;2.50;1.20;;;;;;;24.77;36.78;100879.00;10335455;28;97527;-76
2023/03/19 14:51:19;;;;;;;1.42;1.10;;;;;;;25.19;35.48;100882.41;10345900;28;97378;-75
2023/03/19 14:56:26;;;;;;;2.65;1.20;;;;;;;23.95;36.97;100881.72;10328226;28;98384;-77
2023/03/19 15:01:35;;;;;;;2.10;1.23;;;;;;;23.69;37.53;100875.88;10332928;28;98419;-80
2023/03/19 15:06:42;;;;;;;1.95;1.27;;;;;;;23.67;37.36;100878.69;10329792;28;97006;-84
2023/03/19 15:12:15;;;;;;;1.77;1.15;;;;;;;23.62;37.17;100875.53;10334602;28;96861;-84
2023/03/19 15:17:29;;;;;;;2.80;1.30;;;;;;;23.55;37.27;100868.09;10293945;28;96746;-85
2023/03/19 15:22:34;;;;;;;1.57;1.27;;;;;;;22.33;39.55;100870.06;10293285;28;96811;-85
2023/03/19 15:27:51;;;;;;;;;;;;;;;;;;;;;
2023/03/19 15:32:59;;;;;;;2.55;1.08;;;;;;;21.96;40.98;100860.44;10292480;28;97398;-84
2023/03/19 15:38:25;;;;;;;1.53;1.20;;;;;;;22.12;40.73;100866.34;10291309;28;97239;-85
2023/03/19 17:27:15;;;;;;;2.95;2.20;;;;;;;20.39;51.60;100875.63;10290126;28;97076;-85
2023/03/19 17:32:20;;;;;;;2.13;1.67;;;;;;;20.23;52.28;100876.78;10293877;28;96881;-85
2023/03/19 17:37:31;;;;;;;3.55;2.13;;;;;;;19.83;53.94;100884.03;10296729;28;96638;-85
2023/03/19 17:42:50;;;;;;;;;;;;;;;;;;;;;
2023/03/19 17:47:59;;;;;;;3.50;2.60;;;;;;;19.63;55.61;100887.16;10296662;28;96705;-85
2023/03/19 17:53:10;;;;;;;4.22;3.10;;;;;;;19.51;56.43;100895.16;10295802;28;96952;-85
2023/03/19 17:58:36;;;;;;;;;;;;;;;;;;;;;
2023/03/19 18:03:41;;;;;;;4.00;3.00;;;;;;;18.91;57.94;100897.25;10294184;28;97290;-85
2023/03/19 18:08:51;;;;;;;33.83;3.30;;;;;;;18.79;58.35;100908.69;10296792;28;96888;-85
2023/03/19 18:13:55;;;;;;;5.95;2.80;;;;;;;18.57;59.04;100916.34;10295870;28;96605;-84
2023/03/19 18:24:44;;;;;;;6.18;3.03;;;;;;;18.24;59.80;100947.66;10293357;28;96693;-84
2023/03/19 18:29:49;;;;;;;5.55;3.10;;;;;;;18.14;60.31;100952.69;10295087;28;96562;-84
2023/03/19 18:34:53;;;;;;;4.63;2.65;;;;;;;17.97;60.67;100959.00;10294302;28;96750;-84
2023/03/19 18:40:03;;;;;;;4.80;3.10;;;;;;;17.80;60.64;100958.28;10293825;28;96667;-85
2023/03/19 18:45:12;;;;;;;4.65;2.83;;;;;;;17.66;60.65;100969.72;10294699;28;96920;-83
2023/03/19 18:50:23;;;;;;;4.68;2.70;;;;;;;17.56;61.07;100973.84;10294361;28;96567;-84
2023/03/19 18:55:30;;;;;;;6.00;2.97;;;;;;;17.48;60.99;100978.78;10294013;28;96614;-84
2023/03/19 19:00:47;;;;;;;6.40;2.70;;;;;;;17.39;61.64;100987.22;10294133;28;96763;-83
2023/03/19 19:05:55;;;;;;;5.38;2.65;;;;;;;17.32;62.01;100982.31;10293621;28;96720;-84
2023/03/19 19:11:07;;;;;;;6.03;3.63;;;;;;;17.10;62.10;100984.47;10293399;28;96694;-84
2023/03/19 19:16:19;;;;;;;5.38;2.97;;;;;;;17.02;62.82;100982.19;10292668;28;96638;-84
2023/03/19 19:21:34;;;;;;;;;;;;;;;;;;;;;
2023/03/19 19:26:38;;;;;;;5.97;3.38;;;;;;;16.66;63.75;101002.78;10293026;28;96596;-84
2023/03/19 19:31:45;;;;;;;6.47;3.80;;;;;;;16.51;64.22;101006.25;10292941;28;97507;-84
2023/03/19 19:36:54;;;;;;;7.85;3.75;;;;;;;16.32;65.26;101003.66;10293249;28;96729;-84
2023/03/19 19:41:58;;;;;;;7.18;3.67;;;;;;;16.25;64.90;101012.00;10292628;28;96588;-84
2023/03/19 19:47:12;;;;;;;7.03;3.53;;;;;;;16.13;65.45;101013.50;10292428;28;96749;-84
2023/03/19 19:52:37;;;;;;;6.30;4.18;;;;;;;16.07;66.01;101008.47;10292332;28;96760;-84
2023/03/19 19:57:43;;;;;;;7.35;4.20;;;;;;;16.04;65.57;101027.22;10292486;28;97055;-84
2023/03/19 21:11:56;;;;;;;6.90;4.43;;;;;;;14.67;69.85;101049.59;10375371;28;96920;-83
2023/03/19 21:17:00;;;;;;;;;;;;;;;14.38;70.73;101037.63;10380320;28;96630;-83
2023/03/19 21:22:14;;;;;;;9.17;4.90;;;;;;;14.19;71.29;101049.06;10379463;28;96831;-83
2023/03/19 21:27:25;;;;;;;8.02;5.10;;;;;;;14.31;71.14;101052.06;10379502;28;96724;-83
2023/03/19 21:32:30;;;;;;;8.02;4.63;;;;;;;14.35;70.70;101058.09;10379538;28;96536;-83
2023/03/19 21:37:42;;;;;;;8.05;5.28;;;;;;;14.17;71.07;101056.19;10379371;28;96575;-83
2023/03/19 21:42:51;;;;;;;6.13;5.05;;;;;;;14.34;70.81;101059.84;10379718;28;96499;-83
2023/03/19 21:48:01;;;;;;;6.20;4.57;;;;;;;14.26;70.80;101061.09;10337647;28;96676;-83
2023/03/19 21:53:06;;;;;;;8.48;4.97;;;;;;;14.21;71.18;101066.56;10337264;28;96837;-83
2023/03/19 21:58:14;;;;;;;7.03;4.97;;;;;;;14.07;71.41;101078.66;10351331;28;96839;-83
2023/03/19 22:03:20;;;;;;;7.88;4.97;;;;;;;14.16;71.44;101080.94;10378287;28;97126;-83
2023/03/19 22:08:26;;;;;;;6.68;4.97;;;;;;;14.34;70.89;101075.75;10360400;28;96892;-83
2023/03/19 22:13:46;;;;;;;9.25;5.28;;;;;;;14.23;71.02;101077.97;10335912;28;96694;-83
2023/03/19 22:18:53;;;;;;;8.50;5.10;;;;;;;14.37;70.60;101067.66;10336463;28;96567;-83
2023/03/19 22:23:56;;;;;;;7.05;4.57;;;;;;;14.33;70.64;101073.16;10336503;28;96841;-83
2023/03/19 22:29:07;;;;;;;8.45;5.28;;;;;;;14.23;70.78;101066.53;10336335;28;96573;-83
2023/03/19 22:34:18;;;;;;;7.72;5.18;;;;;;;14.14;71.11;101069.56;10336887;28;96517;-83
2023/03/19 22:39:21;;;;;;;5.82;5.18;;;;;;;13.99;71.50;101054.25;10335205;28;97150;-83
2023/03/19 22:44:30;;;;;;;7.20;5.28;;;;;;;13.60;72.96;101051.44;10335403;28;96741;-84
2023/03/19 22:49:36;;;;;;;7.85;5.47;;;;;;;13.36;73.95;101058.50;10334483;28;97426;-83
2023/03/19 22:54:52;;;;;;;;;;;;;;;;;;;;;
2023/03/19 23:00:04;;;;;;;7.97;5.85;;;;;;;13.24;73.97;101053.69;10328415;28;96735;-83
2023/03/19 23:05:34;;;;;;;10.13;5.40;;;;;;;13.40;73.66;101065.41;10335287;28;96549;-83
2023/03/19 23:10:43;;;;;;;7.88;6.00;;;;;;;13.54;72.80;101065.75;10333782;28;96613;-83
2023/03/19 23:15:57;;;;;;;7.63;5.50;;;;;;;13.20;73.41;101064.44;10334594;28;97102;-83
2023/03/19 23:21:28;;;;;;;;;;;;;;;;;;;;;
2023/03/19 23:26:34;;;;;;;6.40;5.25;;;;;;;13.20;73.56;101075.91;10334916;28;96751;-82
2023/03/19 23:31:42;;;;;;;7.80;5.53;;;;;;;13.21;73.39;101066.16;10334225;28;96877;-83
2023/03/19 23:36:49;;;;;;;8.43;5.63;;;;;;;13.19;73.67;101065.38;10334202;28;97328;-83
2023/03/19 23:42:01;;;;;;;6.75;5.38;;;;;;;13.11;73.87;101063.00;10332651;28;96771;-83
2023/03/19 23:47:06;;;;;;;8.32;5.97;;;;;;;12.95;73.95;101064.47;10333843;28;97594;-83
2023/03/19 23:52:14;;;;;;;9.15;5.43;;;;;;;12.76;75.33;101057.31;10334145;28;96725;-83
2023/03/19 23:57:26;;;;;;;9.25;6.13;;;;;;;12.64;75.57;101050.66;10333680;28;96679;-83
